createdAt,value
2019-02-05T00:04:23.908Z,37.03
2019-02-05T00:09:18.577Z,36.87
2019-02-05T00:14:13.261Z,38.37
2019-02-05T00:19:08.329Z,35.97
2019-02-05T00:24:03.077Z,38.23
2019-02-05T00:28:57.727Z,33.20
2019-02-05T00:33:52.325Z,35.57
2019-02-05T00:38:47.013Z,36.47
2019-02-05T00:43:41.590Z,37.97
2019-02-05T00:48:36.182Z,37.10
2019-02-05T00:53:31.285Z,37.93
2019-02-05T00:58:25.934Z,34.73
2019-02-05T01:03:20.686Z,35.07
2019-02-05T01:08:15.433Z,36.20
2019-02-05T01:13:10.077Z,35.70
2019-02-05T01:18:05.245Z,38.93
2019-02-05T01:22:59.837Z,34.80
2019-02-05T01:27:54.513Z,38.40
2019-02-05T01:32:49.199Z,34.67
2019-02-05T01:37:44.253Z,34.73
2019-02-05T01:42:38.848Z,36.53
2019-02-05T01:47:33.431Z,36.33
2019-02-05T01:52:28.042Z,44.50
2019-02-05T01:57:22.640Z,41.87
2019-02-05T02:02:17.242Z,41.13
2019-02-05T02:07:12.136Z,40.43
2019-02-05T02:12:07.011Z,41.53
2019-02-05T02:17:01.602Z,43.03
2019-02-05T02:21:56.679Z,43.93
2019-02-05T02:26:52.366Z,40.43
2019-02-05T02:31:47.134Z,45.70
2019-02-05T02:36:41.729Z,43.97
2019-02-05T02:41:36.337Z,43.73
2019-02-05T02:46:30.940Z,44.37
2019-02-05T02:51:25.526Z,40.07
2019-02-05T02:56:20.761Z,46.23
2019-02-05T03:01:15.522Z,42.67
2019-02-05T03:06:10.132Z,44.17
2019-02-05T03:11:05.294Z,44.73
2019-02-05T03:16:00.373Z,41.97
2019-02-05T03:20:54.979Z,46.90
2019-02-05T03:25:49.563Z,45.30
2019-02-05T03:30:44.180Z,50.13
2019-02-05T03:35:38.765Z,44.63
2019-02-05T03:40:43.651Z,46.30
2019-02-05T03:45:38.471Z,45.70
2019-02-05T03:50:43.307Z,50.87
2019-02-05T03:55:47.885Z,49.30
2019-02-05T04:01:01.607Z,52.20
2019-02-05T04:06:21.635Z,48.63
2019-02-05T04:11:41.881Z,50.77
2019-02-05T04:16:58.703Z,49.03
2019-02-05T04:22:34.523Z,48.67
2019-02-05T04:27:48.509Z,49.27
2019-02-05T04:32:56.271Z,49.83
2019-02-05T04:38:25.032Z,54.97
2019-02-05T04:43:35.856Z,48.63
2019-02-05T04:48:52.379Z,48.97
2019-02-05T04:53:59.738Z,49.10
2019-02-05T04:59:24.618Z,53.20
2019-02-05T05:04:35.455Z,52.20
2019-02-05T05:09:37.371Z,49.90
2019-02-05T05:14:31.959Z,49.97
2019-02-05T05:19:27.082Z,51.27
2019-02-05T05:24:21.817Z,55.27
2019-02-05T05:29:16.678Z,55.50
2019-02-05T05:34:11.277Z,56.43
2019-02-05T05:39:09.160Z,56.57
2019-02-05T05:44:03.863Z,55.30
2019-02-05T05:48:58.484Z,54.30
2019-02-05T05:53:56.108Z,57.17
2019-02-05T05:58:50.737Z,56.20
2019-02-05T06:03:45.330Z,54.93
2019-02-05T06:08:39.932Z,54.53
2019-02-05T06:13:34.548Z,53.30
2019-02-05T06:18:29.151Z,56.33
2019-02-05T06:23:23.949Z,51.80
2019-02-05T06:28:18.522Z,61.93
2019-02-05T06:33:13.351Z,61.57
2019-02-05T06:38:09.356Z,56.77
2019-02-05T06:43:04.336Z,61.13
2019-02-05T06:47:59.103Z,62.70
2019-02-05T06:52:53.738Z,59.83
2019-02-05T06:57:49.524Z,57.27
2019-02-05T07:02:44.366Z,55.10
2019-02-05T07:07:39.012Z,61.03
2019-02-05T07:12:33.625Z,58.70
2019-02-05T07:17:28.217Z,56.83
2019-02-05T07:22:22.836Z,52.50
2019-02-05T07:27:18.690Z,55.27
2019-02-05T07:32:13.978Z,55.27
2019-02-05T07:37:08.735Z,50.70
2019-02-05T07:42:04.076Z,57.30
2019-02-05T07:46:59.010Z,56.77
2019-02-05T07:51:53.775Z,49.50
2019-02-05T07:56:51.014Z,53.47
2019-02-05T08:01:51.766Z,46.63
2019-02-05T08:06:48.939Z,41.67
2019-02-05T08:11:47.032Z,40.40
2019-02-05T08:16:49.465Z,39.20
2019-02-05T08:21:50.106Z,41.30
2019-02-05T08:26:49.450Z,39.03
2019-02-05T08:31:49.330Z,38.97
2019-02-05T08:36:44.432Z,41.57
2019-02-05T08:41:39.057Z,40.07
2019-02-05T08:46:33.966Z,41.67
2019-02-05T08:51:28.993Z,36.67
2019-02-05T08:56:31.783Z,35.07
2019-02-05T09:01:26.883Z,42.17
2019-02-05T09:06:21.926Z,43.07
2019-02-05T09:11:16.698Z,43.73
2019-02-05T09:16:11.824Z,36.70
2019-02-05T09:21:09.671Z,41.83
2019-02-05T09:26:09.084Z,45.07
2019-02-05T09:31:05.133Z,42.90
2019-02-05T09:36:01.120Z,38.10
2019-02-05T09:40:56.406Z,40.57
2019-02-05T09:45:51.517Z,37.53
2019-02-05T09:50:46.930Z,40.90
2019-02-05T09:55:44.405Z,40.17
2019-02-05T10:00:45.252Z,48.87
2019-02-05T10:05:45.410Z,42.83
2019-02-05T10:10:45.939Z,37.37
2019-02-05T10:15:50.330Z,37.93
2019-02-05T10:20:53.104Z,45.67
2019-02-05T10:25:56.531Z,35.80
2019-02-05T10:30:52.880Z,38.90
2019-02-05T10:35:47.761Z,31.77
2019-02-05T10:40:42.375Z,32.70
2019-02-05T10:45:37.498Z,39.27
2019-02-05T10:50:32.409Z,33.40
2019-02-05T10:55:27.560Z,38.40
2019-02-05T11:00:34.129Z,37.47
2019-02-05T11:05:31.434Z,40.53
2019-02-05T11:10:26.999Z,36.57
2019-02-05T11:15:27.970Z,41.27
2019-02-05T11:20:26.089Z,38.43
2019-02-05T11:25:21.505Z,38.97
2019-02-05T11:30:20.804Z,38.90
2019-02-05T11:35:17.470Z,39.33
2019-02-05T11:40:16.931Z,37.27
2019-02-05T11:45:16.321Z,42.53
2019-02-05T11:50:15.323Z,39.87
2019-02-05T11:55:33.768Z,39.47
2019-02-05T12:00:32.877Z,36.67
2019-02-05T12:05:26.548Z,37.77
2019-02-05T12:10:22.878Z,37.77
2019-02-05T12:15:18.625Z,37.87
2019-02-05T12:20:19.194Z,40.17
2019-02-05T12:25:17.792Z,37.97
2019-02-05T12:30:25.854Z,38.40
2019-02-05T12:35:20.697Z,41.37
2019-02-05T12:40:18.820Z,40.03
2019-02-05T12:45:21.293Z,37.07
2019-02-05T12:50:20.456Z,35.27
2019-02-05T12:55:21.616Z,37.27
2019-02-05T13:00:37.268Z,39.93
2019-02-05T13:05:32.239Z,37.83
2019-02-05T13:10:31.840Z,37.70
2019-02-05T13:15:26.941Z,40.37
2019-02-05T13:20:32.572Z,36.87
2019-02-05T13:25:30.693Z,37.73
2019-02-05T13:30:29.619Z,46.10
2019-02-05T13:35:24.666Z,41.07
2019-02-05T13:40:26.144Z,39.50
2019-02-05T13:45:28.085Z,39.73
2019-02-05T13:50:33.413Z,42.23
2019-02-05T13:55:31.566Z,39.70
2019-02-05T14:00:36.149Z,35.63
2019-02-05T14:05:31.287Z,41.47
2019-02-05T14:10:32.683Z,38.23
2019-02-05T14:15:31.326Z,43.23
2019-02-05T14:20:26.353Z,35.60
2019-02-05T14:25:21.439Z,37.67
2019-02-05T14:30:29.116Z,43.03
2019-02-05T14:35:23.781Z,42.97
2019-02-05T14:40:21.784Z,45.03
2019-02-05T14:45:17.166Z,41.47
2019-02-05T14:50:25.111Z,42.50
2019-02-05T14:55:19.852Z,39.80
2019-02-05T15:00:27.405Z,42.10
2019-02-05T15:05:22.354Z,46.70
2019-02-05T15:10:21.419Z,38.27
2019-02-05T15:15:22.691Z,40.17
2019-02-05T15:20:36.230Z,38.33
2019-02-05T15:25:31.414Z,42.80
2019-02-05T15:30:33.217Z,42.77
2019-02-05T15:35:28.230Z,44.50
2019-02-05T15:40:23.013Z,41.97
2019-02-05T15:45:18.614Z,39.63
2019-02-05T15:50:14.903Z,44.57
2019-02-05T15:55:17.729Z,44.77
2019-02-05T16:00:25.594Z,42.63
2019-02-05T16:05:20.369Z,46.97
2019-02-05T16:10:24.137Z,46.27
2019-02-05T16:15:18.901Z,42.73
2019-02-05T16:20:20.339Z,44.63
2019-02-05T16:25:18.360Z,41.57
2019-02-05T16:30:31.163Z,46.70
2019-02-05T16:35:26.360Z,44.10
2019-02-05T16:40:36.645Z,44.27
2019-02-05T16:45:32.789Z,47.47
2019-02-05T16:50:32.009Z,50.70
2019-02-05T16:55:26.602Z,50.13
2019-02-05T17:00:33.379Z,49.10
2019-02-05T17:05:35.019Z,50.60
2019-02-05T17:10:34.127Z,51.90
2019-02-05T17:15:32.450Z,45.40
2019-02-05T17:20:35.494Z,46.20
2019-02-05T17:25:36.449Z,48.17
2019-02-05T17:30:42.726Z,48.43
2019-02-05T17:35:41.492Z,55.20
2019-02-05T17:40:41.909Z,48.37
2019-02-05T17:45:39.938Z,53.03
2019-02-05T17:50:34.726Z,54.17
2019-02-05T17:55:29.809Z,54.53
2019-02-05T18:00:29.938Z,51.43
2019-02-05T18:05:24.588Z,55.00
2019-02-05T18:10:23.687Z,52.60
2019-02-05T18:15:31.402Z,57.43
2019-02-05T18:20:26.128Z,58.23
2019-02-05T18:25:21.771Z,56.70
2019-02-05T18:30:26.188Z,56.67
2019-02-05T18:35:21.013Z,58.00
2019-02-05T18:40:29.496Z,58.67
2019-02-05T18:45:24.165Z,57.03
2019-02-05T18:50:28.335Z,54.10
2019-02-05T18:55:26.414Z,57.13
2019-02-05T19:00:38.636Z,54.23
2019-02-05T19:05:32.755Z,58.43
2019-02-05T19:10:32.353Z,59.33
2019-02-05T19:15:38.951Z,58.23
2019-02-05T19:20:33.895Z,59.67
2019-02-05T19:25:39.287Z,60.93
2019-02-05T19:30:35.788Z,64.60
2019-02-05T19:35:30.395Z,60.00
2019-02-05T19:40:25.045Z,63.30
2019-02-05T19:45:24.008Z,67.47
2019-02-05T19:50:18.634Z,63.90
2019-02-05T19:55:14.107Z,63.30
2019-02-05T20:00:21.702Z,64.03
2019-02-05T20:05:18.205Z,67.57
2019-02-05T20:10:15.418Z,66.47
2019-02-05T20:15:14.160Z,63.90
2019-02-05T20:20:15.479Z,68.20
2019-02-05T20:25:14.075Z,66.23
2019-02-05T20:30:18.789Z,68.23
2019-02-05T20:35:13.883Z,68.80
2019-02-05T20:40:24.256Z,66.67
2019-02-05T20:45:18.908Z,68.40
2019-02-05T20:50:18.968Z,67.13
2019-02-05T20:55:19.239Z,67.63
2019-02-05T21:00:18.402Z,68.40
2019-02-05T21:05:19.041Z,70.63
2019-02-05T21:10:26.592Z,64.17
2019-02-05T21:15:23.463Z,63.17
2019-02-05T21:20:33.231Z,67.57
2019-02-05T21:25:27.729Z,65.03
2019-02-05T21:30:24.815Z,69.37
2019-02-05T21:35:19.419Z,55.93
2019-02-05T21:40:23.551Z,60.70
2019-02-05T21:45:22.557Z,55.87
2019-02-05T21:50:20.842Z,58.40
2019-02-05T21:55:18.534Z,56.10
2019-02-05T22:00:23.143Z,61.13
2019-02-05T22:05:18.319Z,57.30
2019-02-05T22:10:14.430Z,65.33
2019-02-05T22:15:15.924Z,63.07
2019-02-05T22:20:17.215Z,63.87
2019-02-05T22:25:16.127Z,64.50
2019-02-05T22:30:20.701Z,64.73
2019-02-05T22:35:15.634Z,71.57
2019-02-05T22:40:14.954Z,71.00
2019-02-05T22:45:15.762Z,71.17
2019-02-05T22:50:23.395Z,71.80
2019-02-05T22:55:18.215Z,70.70
2019-02-05T23:00:33.174Z,73.57
2019-02-05T23:05:48.602Z,72.87
2019-02-05T23:11:05.552Z,73.27
2019-02-05T23:16:01.106Z,79.63
2019-02-05T23:20:55.688Z,74.10
2019-02-05T23:25:50.368Z,71.93
2019-02-05T23:30:45.274Z,74.37
2019-02-05T23:35:40.051Z,72.83
2019-02-05T23:40:34.627Z,69.03
2019-02-05T23:45:29.287Z,71.73
2019-02-05T23:50:23.873Z,73.20
2019-02-05T23:55:18.517Z,74.37
